Aviation Digital Data Service (ADDS)

Output produced by METARs form (0434 UTC 26 April 2019)
found at http://www.aviationweather.gov/metar/data/
 
Forecast for: MMAA (ACAPULCO/G. ALVA, MX)
Text: TAF MMAA 260419Z 2606/2712 27005KT 6SM HZ SKC TX28/2620Z TNTN21/2612Z
Forecast period: 0600 to 1800 UTC 26 April 2019
Forecast type: FROM: standard forecast or significant change
Winds: from the W (270 degrees) at 6 MPH (5 knots; 2.6 m/s)
Visibility: 6 miles (10 km)
Clouds: clear skies
Weather: HZ  (haze)
Text: FM261800 25010KT P6SM SCT250
Forecast period: 1800 UTC 26 April 2019 to 0500 UTC 27 April 2019
Forecast type: FROM: standard forecast or significant change
Winds: from the WSW (250 degrees) at 12 MPH (10 knots; 5.1 m/s)
Visibility: 6 or more miles 10+ km)
Ceiling: at least 12,000 feet AGL
Clouds: scattered clouds at 25000 feet AGL
Weather: no significant weather forecast for this period
Text: BECMG 2705/2707 34004KT SKC
Forecast period: 0500 to 1200 UTC 27 April 2019
Forecast type: BECOMING: Conditions expected to become as follows by 0700 UTC 27 April 2019
Winds: from the NNW (340 degrees) at 5 MPH (4 knots; 2.1 m/s)
Visibility: 6 or more miles 10+ km)
Clouds: clear skies
Weather: no significant weather forecast for this period